Blaine, Washington
Current Conditions -  °F | °C
As of 2:53 AM on Thursday 23 Oct 2014 (Local Time) from KBLI Reporting Station
Broken Clouds Broken Clouds  
Wind Chill: 55°   Ceiling: 4100
Heat Index: 55°   Visibility: 10mi
Dew Point: 47°   Wind: 9mph
Humidity: 74%   Direction: 160°SSE
Pressure: 29.69"   Gusts: NA
Location:  48.99°N, 122.74°W
Report Text: KBLI 230953Z AUTO 16008KT 10SM BKN041 13/08 A2969 RMK AO2 SLP062 T01280083
Loading
Personal Weather Stations






























Interactive Weather Map New forecast layout! Learn more

10-Day Weather Forecast

Advertisements
Track Severe Weather on mobile